sensor_id;sensor_type;location;lat;lon;timestamp;temperature;humidity
12289;DHT22;6207;49.308;7.336;2023-03-01T00:01:28;-0.70;99.90
12289;DHT22;6207;49.308;7.336;2023-03-01T00:03:55;-0.80;99.90
12289;DHT22;6207;49.308;7.336;2023-03-01T00:06:23;-0.70;99.90
12289;DHT22;6207;49.308;7.336;2023-03-01T00:08:50;-0.40;99.90
12289;DHT22;6207;49.308;7.336;2023-03-01T00:11:28;-0.80;99.90
12289;DHT22;6207;49.308;7.336;2023-03-01T00:13:58;-1.00;99.90
12289;DHT22;6207;49.308;7.336;2023-03-01T00:16:31;-0.80;99.90
12289;DHT22;6207;49.308;7.336;2023-03-01T00:19:00;-0.80;99.90
12289;DHT22;6207;49.308;7.336;2023-03-01T00:21:27;-1.00;99.90
12289;DHT22;6207;49.308;7.336;2023-03-01T00:23:55;-1.00;99.90
12289;DHT22;6207;49.308;7.336;2023-03-01T00:26:23;-1.10;99.90
12289;DHT22;6207;49.308;7.336;2023-03-01T00:28:50;-1.00;99.90
12289;DHT22;6207;49.308;7.336;2023-03-01T00:31:21;-1.10;99.90
12289;DHT22;6207;49.308;7.336;2023-03-01T00:33:48;-1.10;99.90
12289;DHT22;6207;49.308;7.336;2023-03-01T00:36:15;-1.10;99.90
12289;DHT22;6207;49.308;7.336;2023-03-01T00:38:44;-0.80;99.90
12289;DHT22;6207;49.308;7.336;2023-03-01T00:41:14;-0.90;99.90
12289;DHT22;6207;49.308;7.336;2023-03-01T00:43:41;-0.90;99.90
12289;DHT22;6207;49.308;7.336;2023-03-01T00:46:20;-1.10;99.90
12289;DHT22;6207;49.308;7.336;2023-03-01T00:48:48;-1.10;99.90
12289;DHT22;6207;49.308;7.336;2023-03-01T00:51:27;-1.20;99.90
12289;DHT22;6207;49.308;7.336;2023-03-01T00:53:55;-1.20;99.90
12289;DHT22;6207;49.308;7.336;2023-03-01T00:56:23;-1.10;99.90
12289;DHT22;6207;49.308;7.336;2023-03-01T00:58:50;-1.00;99.90
12289;DHT22;6207;49.308;7.336;2023-03-01T01:01:24;-1.20;99.90
12289;DHT22;6207;49.308;7.336;2023-03-01T01:03:56;-1.20;99.90
12289;DHT22;6207;49.308;7.336;2023-03-01T01:06:29;-1.20;99.90
12289;DHT22;6207;49.308;7.336;2023-03-01T01:08:57;-1.10;99.90
12289;DHT22;6207;49.308;7.336;2023-03-01T01:11:26;-1.20;99.90
12289;DHT22;6207;49.308;7.336;2023-03-01T01:13:53;-1.20;99.90
12289;DHT22;6207;49.308;7.336;2023-03-01T01:16:22;-1.20;99.90
12289;DHT22;6207;49.308;7.336;2023-03-01T01:18:49;-1.10;99.90
12289;DHT22;6207;49.308;7.336;2023-03-01T01:21:19;-1.20;99.90
12289;DHT22;6207;49.308;7.336;2023-03-01T01:23:47;-1.20;99.90
12289;DHT22;6207;49.308;7.336;2023-03-01T01:26:23;-1.00;99.90
12289;DHT22;6207;49.308;7.336;2023-03-01T01:28:51;-1.10;99.90
12289;DHT22;6207;49.308;7.336;2023-03-01T01:31:18;-1.30;99.90
12289;DHT22;6207;49.308;7.336;2023-03-01T01:33:45;-1.30;99.90
12289;DHT22;6207;49.308;7.336;2023-03-01T01:36:12;-1.20;99.90
12289;DHT22;6207;49.308;7.336;2023-03-01T01:38:39;-1.20;99.90
12289;DHT22;6207;49.308;7.336;2023-03-01T01:41:06;-1.20;99.90
12289;DHT22;6207;49.308;7.336;2023-03-01T01:43:35;-1.20;99.90
12289;DHT22;6207;49.308;7.336;2023-03-01T01:46:32;-1.10;99.90
12289;DHT22;6207;49.308;7.336;2023-03-01T01:49:03;-1.10;99.90
12289;DHT22;6207;49.308;7.336;2023-03-01T01:51:36;-1.20;99.90
12289;DHT22;6207;49.308;7.336;2023-03-01T01:54:16;-1.30;99.90
12289;DHT22;6207;49.308;7.336;2023-03-01T01:56:48;-1.40;99.90
12289;DHT22;6207;49.308;7.336;2023-03-01T01:59:16;-1.30;99.90
12289;DHT22;6207;49.308;7.336;2023-03-01T02:01:43;-1.30;99.90
12289;DHT22;6207;49.308;7.336;2023-03-01T02:04:10;-1.40;99.90
12289;DHT22;6207;49.308;7.336;2023-03-01T02:06:41;-1.40;99.90
12289;DHT22;6207;49.308;7.336;2023-03-01T02:09:13;-1.50;99.90
12289;DHT22;6207;49.308;7.336;2023-03-01T02:11:41;-1.50;99.90
12289;DHT22;6207;49.308;7.336;2023-03-01T02:14:08;-1.70;99.90
12289;DHT22;6207;49.308;7.336;2023-03-01T02:16:35;-1.90;99.90
12289;DHT22;6207;49.308;7.336;2023-03-01T02:19:03;-2.10;99.90
12289;DHT22;6207;49.308;7.336;2023-03-01T02:22:12;-2.20;99.90
12289;DHT22;6207;49.308;7.336;2023-03-01T02:27:27;-2.50;99.90
12289;DHT22;6207;49.308;7.336;2023-03-01T02:29:57;-2.50;99.90
12289;DHT22;6207;49.308;7.336;2023-03-01T02:32:24;-2.60;99.90
12289;DHT22;6207;49.308;7.336;2023-03-01T02:34:54;-2.60;99.90
12289;DHT22;6207;49.308;7.336;2023-03-01T02:37:21;-2.70;99.90
12289;DHT22;6207;49.308;7.336;2023-03-01T02:39:57;-2.70;99.90
12289;DHT22;6207;49.308;7.336;2023-03-01T02:42:28;-2.70;99.90
12289;DHT22;6207;49.308;7.336;2023-03-01T02:44:57;-2.70;99.90
12289;DHT22;6207;49.308;7.336;2023-03-01T02:47:23;-2.80;99.90
12289;DHT22;6207;49.308;7.336;2023-03-01T02:49:50;-2.80;99.90
12289;DHT22;6207;49.308;7.336;2023-03-01T02:52:40;-2.80;99.90
12289;DHT22;6207;49.308;7.336;2023-03-01T02:55:12;-2.80;99.90
12289;DHT22;6207;49.308;7.336;2023-03-01T02:57:43;-2.80;99.90
12289;DHT22;6207;49.308;7.336;2023-03-01T03:00:21;-2.80;99.90
12289;DHT22;6207;49.308;7.336;2023-03-01T03:02:51;-2.90;99.90
12289;DHT22;6207;49.308;7.336;2023-03-01T03:05:20;-2.90;99.90
12289;DHT22;6207;49.308;7.336;2023-03-01T03:07:49;-2.80;99.90
12289;DHT22;6207;49.308;7.336;2023-03-01T03:10:29;-2.70;99.90
12289;DHT22;6207;49.308;7.336;2023-03-01T03:12:58;-2.80;99.90
12289;DHT22;6207;49.308;7.336;2023-03-01T03:15:27;-2.80;99.90
12289;DHT22;6207;49.308;7.336;2023-03-01T03:17:54;-2.80;99.90
12289;DHT22;6207;49.308;7.336;2023-03-01T03:20:24;-2.80;99.90
12289;DHT22;6207;49.308;7.336;2023-03-01T03:22:53;-2.80;99.90
12289;DHT22;6207;49.308;7.336;2023-03-01T03:25:21;-2.80;99.90
12289;DHT22;6207;49.308;7.336;2023-03-01T03:27:50;-2.90;99.90
12289;DHT22;6207;49.308;7.336;2023-03-01T03:30:26;-2.60;99.90
12289;DHT22;6207;49.308;7.336;2023-03-01T03:32:53;-2.70;99.90
12289;DHT22;6207;49.308;7.336;2023-03-01T03:35:32;-2.70;99.90
12289;DHT22;6207;49.308;7.336;2023-03-01T03:38:05;-2.70;99.90
12289;DHT22;6207;49.308;7.336;2023-03-01T03:40:39;-2.60;99.90
12289;DHT22;6207;49.308;7.336;2023-03-01T03:43:14;-2.60;99.90
12289;DHT22;6207;49.308;7.336;2023-03-01T03:45:44;-2.60;99.90
12289;DHT22;6207;49.308;7.336;2023-03-01T03:48:11;-2.60;99.90
12289;DHT22;6207;49.308;7.336;2023-03-01T03:50:39;-2.50;99.90
12289;DHT22;6207;49.308;7.336;2023-03-01T03:53:09;-2.50;99.90
12289;DHT22;6207;49.308;7.336;2023-03-01T03:55:36;-2.60;99.90
12289;DHT22;6207;49.308;7.336;2023-03-01T03:58:07;-2.30;99.90
12289;DHT22;6207;49.308;7.336;2023-03-01T04:00:43;-2.30;99.90
12289;DHT22;6207;49.308;7.336;2023-03-01T04:03:11;-2.40;99.90
12289;DHT22;6207;49.308;7.336;2023-03-01T04:05:40;-2.50;99.90
12289;DHT22;6207;49.308;7.336;2023-03-01T04:08:08;-2.70;99.90
12289;DHT22;6207;49.308;7.336;2023-03-01T04:10:41;-2.80;99.90
12289;DHT22;6207;49.308;7.336;2023-03-01T04:13:14;-2.90;99.90
12289;DHT22;6207;49.308;7.336;2023-03-01T04:15:41;-3.00;99.90
12289;DHT22;6207;49.308;7.336;2023-03-01T04:18:12;-3.10;99.90
12289;DHT22;6207;49.308;7.336;2023-03-01T04:20:39;-3.10;99.90
12289;DHT22;6207;49.308;7.336;2023-03-01T04:23:09;-3.10;99.90
12289;DHT22;6207;49.308;7.336;2023-03-01T04:25:58;-3.10;99.90
12289;DHT22;6207;49.308;7.336;2023-03-01T04:28:31;-3.10;99.90
12289;DHT22;6207;49.308;7.336;2023-03-01T04:31:04;-2.70;99.90
12289;DHT22;6207;49.308;7.336;2023-03-01T04:33:50;-2.70;99.90
12289;DHT22;6207;49.308;7.336;2023-03-01T04:36:23;-2.70;99.90
12289;DHT22;6207;49.308;7.336;2023-03-01T04:38:50;-2.70;99.90
12289;DHT22;6207;49.308;7.336;2023-03-01T04:41:19;-2.70;99.90
12289;DHT22;6207;49.308;7.336;2023-03-01T04:43:46;-2.80;99.90
12289;DHT22;6207;49.308;7.336;2023-03-01T04:46:16;-2.90;99.90
12289;DHT22;6207;49.308;7.336;2023-03-01T04:48:44;-2.80;99.90
12289;DHT22;6207;49.308;7.336;2023-03-01T04:51:11;-2.80;99.90
12289;DHT22;6207;49.308;7.336;2023-03-01T04:53:41;-2.90;99.90
12289;DHT22;6207;49.308;7.336;2023-03-01T04:56:08;-2.70;99.90
12289;DHT22;6207;49.308;7.336;2023-03-01T04:58:36;-3.00;99.90
12289;DHT22;6207;49.308;7.336;2023-03-01T05:01:11;-2.90;99.90
12289;DHT22;6207;49.308;7.336;2023-03-01T05:03:43;-2.90;99.90
12289;DHT22;6207;49.308;7.336;2023-03-01T05:06:11;-2.90;99.90
12289;DHT22;6207;49.308;7.336;2023-03-01T05:08:38;-2.80;99.90
12289;DHT22;6207;49.308;7.336;2023-03-01T05:11:05;-2.80;99.90
12289;DHT22;6207;49.308;7.336;2023-03-01T05:13:36;-2.80;99.90
12289;DHT22;6207;49.308;7.336;2023-03-01T05:16:04;-2.80;99.90
12289;DHT22;6207;49.308;7.336;2023-03-01T05:18:32;-2.80;99.90
12289;DHT22;6207;49.308;7.336;2023-03-01T05:21:08;-2.90;99.90
12289;DHT22;6207;49.308;7.336;2023-03-01T05:23:36;-2.90;99.90
12289;DHT22;6207;49.308;7.336;2023-03-01T05:26:04;-2.90;99.90
12289;DHT22;6207;49.308;7.336;2023-03-01T05:28:37;-2.80;99.90
12289;DHT22;6207;49.308;7.336;2023-03-01T05:31:04;-2.90;99.90
12289;DHT22;6207;49.308;7.336;2023-03-01T05:33:40;-2.80;99.90
12289;DHT22;6207;49.308;7.336;2023-03-01T05:36:08;-2.80;99.90
12289;DHT22;6207;49.308;7.336;2023-03-01T05:38:36;-2.90;99.90
12289;DHT22;6207;49.308;7.336;2023-03-01T05:41:02;-2.90;99.90
12289;DHT22;6207;49.308;7.336;2023-03-01T05:43:32;-2.80;99.90
12289;DHT22;6207;49.308;7.336;2023-03-01T05:46:02;-2.90;99.90
12289;DHT22;6207;49.308;7.336;2023-03-01T05:48:28;-2.70;99.90
12289;DHT22;6207;49.308;7.336;2023-03-01T05:50:58;-2.80;99.90
12289;DHT22;6207;49.308;7.336;2023-03-01T05:53:26;-2.90;99.90
12289;DHT22;6207;49.308;7.336;2023-03-01T05:55:53;-2.90;99.90
12289;DHT22;6207;49.308;7.336;2023-03-01T05:58:20;-2.90;99.90
12289;DHT22;6207;49.308;7.336;2023-03-01T06:00:47;-2.70;99.90
12289;DHT22;6207;49.308;7.336;2023-03-01T06:03:16;-2.60;99.90
12289;DHT22;6207;49.308;7.336;2023-03-01T06:05:44;-2.60;99.90
12289;DHT22;6207;49.308;7.336;2023-03-01T06:08:12;-2.60;99.90
12289;DHT22;6207;49.308;7.336;2023-03-01T06:10:39;-2.60;99.90
12289;DHT22;6207;49.308;7.336;2023-03-01T06:13:05;-2.50;99.90
12289;DHT22;6207;49.308;7.336;2023-03-01T06:15:32;-2.50;99.90
12289;DHT22;6207;49.308;7.336;2023-03-01T06:17:59;-2.40;99.90
12289;DHT22;6207;49.308;7.336;2023-03-01T06:20:28;-2.40;99.90
12289;DHT22;6207;49.308;7.336;2023-03-01T06:22:54;-2.50;99.90
12289;DHT22;6207;49.308;7.336;2023-03-01T06:25:23;-2.50;99.90
12289;DHT22;6207;49.308;7.336;2023-03-01T06:27:50;-2.60;99.90
12289;DHT22;6207;49.308;7.336;2023-03-01T06:30:20;-2.50;99.90
12289;DHT22;6207;49.308;7.336;2023-03-01T06:32:47;-2.30;99.90
12289;DHT22;6207;49.308;7.336;2023-03-01T06:35:15;-2.50;99.90
12289;DHT22;6207;49.308;7.336;2023-03-01T06:37:44;-2.30;99.90
12289;DHT22;6207;49.308;7.336;2023-03-01T06:40:12;-2.30;99.90
12289;DHT22;6207;49.308;7.336;2023-03-01T06:42:41;-2.30;99.90
12289;DHT22;6207;49.308;7.336;2023-03-01T06:45:10;-2.20;99.90
12289;DHT22;6207;49.308;7.336;2023-03-01T06:47:37;-2.10;99.90
12289;DHT22;6207;49.308;7.336;2023-03-01T06:50:04;-2.10;99.90
12289;DHT22;6207;49.308;7.336;2023-03-01T06:52:31;-2.00;99.90
12289;DHT22;6207;49.308;7.336;2023-03-01T06:54:58;-1.90;99.90
12289;DHT22;6207;49.308;7.336;2023-03-01T06:57:24;-1.70;99.90
12289;DHT22;6207;49.308;7.336;2023-03-01T06:59:51;-1.70;99.90
12289;DHT22;6207;49.308;7.336;2023-03-01T07:02:18;-1.60;99.90
12289;DHT22;6207;49.308;7.336;2023-03-01T07:04:45;-1.40;99.90
12289;DHT22;6207;49.308;7.336;2023-03-01T07:07:11;-1.50;99.90
12289;DHT22;6207;49.308;7.336;2023-03-01T07:09:38;-1.40;99.90
12289;DHT22;6207;49.308;7.336;2023-03-01T07:12:05;-1.30;99.90
12289;DHT22;6207;49.308;7.336;2023-03-01T07:14:32;-1.30;99.90
12289;DHT22;6207;49.308;7.336;2023-03-01T07:16:58;-1.00;99.90
12289;DHT22;6207;49.308;7.336;2023-03-01T07:19:25;0.40;99.90
12289;DHT22;6207;49.308;7.336;2023-03-01T07:21:52;0.70;99.90
12289;DHT22;6207;49.308;7.336;2023-03-01T07:24:18;1.10;99.90
12289;DHT22;6207;49.308;7.336;2023-03-01T07:26:49;1.50;99.90
12289;DHT22;6207;49.308;7.336;2023-03-01T07:29:16;1.80;99.90
12289;DHT22;6207;49.308;7.336;2023-03-01T07:31:44;2.00;99.90
12289;DHT22;6207;49.308;7.336;2023-03-01T07:34:10;2.10;99.90
12289;DHT22;6207;49.308;7.336;2023-03-01T07:36:38;3.10;99.90
12289;DHT22;6207;49.308;7.336;2023-03-01T07:39:06;3.20;99.90
12289;DHT22;6207;49.308;7.336;2023-03-01T07:41:32;2.20;99.90
12289;DHT22;6207;49.308;7.336;2023-03-01T07:43:59;2.00;99.90
12289;DHT22;6207;49.308;7.336;2023-03-01T07:46:26;2.60;99.90
12289;DHT22;6207;49.308;7.336;2023-03-01T07:48:53;3.20;99.90
12289;DHT22;6207;49.308;7.336;2023-03-01T07:51:20;3.50;99.90
12289;DHT22;6207;49.308;7.336;2023-03-01T07:53:48;3.80;99.90
12289;DHT22;6207;49.308;7.336;2023-03-01T07:56:15;4.40;99.90
12289;DHT22;6207;49.308;7.336;2023-03-01T07:58:46;4.30;99.90
12289;DHT22;6207;49.308;7.336;2023-03-01T08:01:17;4.50;99.90
12289;DHT22;6207;49.308;7.336;2023-03-01T08:03:44;3.50;99.90
12289;DHT22;6207;49.308;7.336;2023-03-01T08:06:12;4.80;99.90
12289;DHT22;6207;49.308;7.336;2023-03-01T08:08:39;4.60;99.90
12289;DHT22;6207;49.308;7.336;2023-03-01T08:11:07;3.70;99.90
12289;DHT22;6207;49.308;7.336;2023-03-01T08:13:36;1.90;99.90
12289;DHT22;6207;49.308;7.336;2023-03-01T08:16:05;3.10;99.90
12289;DHT22;6207;49.308;7.336;2023-03-01T08:18:32;2.70;99.90
12289;DHT22;6207;49.308;7.336;2023-03-01T08:21:07;2.20;99.90
12289;DHT22;6207;49.308;7.336;2023-03-01T08:23:34;3.40;99.90
12289;DHT22;6207;49.308;7.336;2023-03-01T08:26:15;4.10;99.90
12289;DHT22;6207;49.308;7.336;2023-03-01T08:28:43;5.10;99.90
12289;DHT22;6207;49.308;7.336;2023-03-01T08:31:25;5.20;99.90
12289;DHT22;6207;49.308;7.336;2023-03-01T08:33:54;3.40;99.90
12289;DHT22;6207;49.308;7.336;2023-03-01T08:36:27;2.60;99.90
12289;DHT22;6207;49.308;7.336;2023-03-01T08:38:56;2.40;99.90
12289;DHT22;6207;49.308;7.336;2023-03-01T08:41:22;3.60;99.90
12289;DHT22;6207;49.308;7.336;2023-03-01T08:43:50;5.20;99.90
12289;DHT22;6207;49.308;7.336;2023-03-01T08:46:16;3.60;99.90
12289;DHT22;6207;49.308;7.336;2023-03-01T08:48:43;3.30;99.90
12289;DHT22;6207;49.308;7.336;2023-03-01T08:51:18;5.30;99.90
12289;DHT22;6207;49.308;7.336;2023-03-01T08:53:45;6.10;99.90
12289;DHT22;6207;49.308;7.336;2023-03-01T08:56:13;5.60;99.90
12289;DHT22;6207;49.308;7.336;2023-03-01T08:58:43;4.60;99.90
12289;DHT22;6207;49.308;7.336;2023-03-01T09:01:11;3.90;99.90
12289;DHT22;6207;49.308;7.336;2023-03-01T09:03:39;6.40;99.90
12289;DHT22;6207;49.308;7.336;2023-03-01T09:06:07;7.00;99.90
12289;DHT22;6207;49.308;7.336;2023-03-01T09:08:35;8.00;99.90
12289;DHT22;6207;49.308;7.336;2023-03-01T09:11:03;8.80;99.90
12289;DHT22;6207;49.308;7.336;2023-03-01T09:13:30;9.70;99.90
12289;DHT22;6207;49.308;7.336;2023-03-01T09:16:01;8.40;99.90
12289;DHT22;6207;49.308;7.336;2023-03-01T09:18:29;5.90;99.90
12289;DHT22;6207;49.308;7.336;2023-03-01T09:21:25;4.70;99.90
12289;DHT22;6207;49.308;7.336;2023-03-01T09:24:06;5.00;99.90
12289;DHT22;6207;49.308;7.336;2023-03-01T09:26:33;6.60;99.90
12289;DHT22;6207;49.308;7.336;2023-03-01T09:29:00;6.80;99.90
12289;DHT22;6207;49.308;7.336;2023-03-01T09:31:26;7.40;99.90
12289;DHT22;6207;49.308;7.336;2023-03-01T09:33:54;8.10;99.90
12289;DHT22;6207;49.308;7.336;2023-03-01T09:36:23;7.70;99.90
12289;DHT22;6207;49.308;7.336;2023-03-01T09:38:52;6.70;99.90
12289;DHT22;6207;49.308;7.336;2023-03-01T09:41:57;6.40;99.90
12289;DHT22;6207;49.308;7.336;2023-03-01T09:47:05;4.80;99.90
12289;DHT22;6207;49.308;7.336;2023-03-01T09:49:36;5.30;99.90
12289;DHT22;6207;49.308;7.336;2023-03-01T09:52:16;6.50;99.90
12289;DHT22;6207;49.308;7.336;2023-03-01T09:54:46;5.40;99.90
12289;DHT22;6207;49.308;7.336;2023-03-01T09:57:28;4.40;99.90
12289;DHT22;6207;49.308;7.336;2023-03-01T10:00:17;5.40;99.90
12289;DHT22;6207;49.308;7.336;2023-03-01T10:03:13;5.90;99.90
12289;DHT22;6207;49.308;7.336;2023-03-01T10:06:15;6.40;99.90
12289;DHT22;6207;49.308;7.336;2023-03-01T10:09:16;6.30;99.90
12289;DHT22;6207;49.308;7.336;2023-03-01T10:11:49;5.90;99.90
12289;DHT22;6207;49.308;7.336;2023-03-01T10:15:06;7.30;99.90
12289;DHT22;6207;49.308;7.336;2023-03-01T10:17:27;8.00;99.90
12289;DHT22;6207;49.308;7.336;2023-03-01T10:19:55;7.30;99.90
12289;DHT22;6207;49.308;7.336;2023-03-01T10:22:30;5.60;99.90
12289;DHT22;6207;49.308;7.336;2023-03-01T10:24:59;7.70;99.90
12289;DHT22;6207;49.308;7.336;2023-03-01T10:27:53;7.40;99.90
12289;DHT22;6207;49.308;7.336;2023-03-01T10:30:30;5.70;99.90
12289;DHT22;6207;49.308;7.336;2023-03-01T10:32:58;5.60;99.90
12289;DHT22;6207;49.308;7.336;2023-03-01T10:35:29;6.20;99.90
12289;DHT22;6207;49.308;7.336;2023-03-01T10:38:08;6.10;99.90
12289;DHT22;6207;49.308;7.336;2023-03-01T10:41:11;5.80;99.90
12289;DHT22;6207;49.308;7.336;2023-03-01T10:43:59;6.70;99.90
12289;DHT22;6207;49.308;7.336;2023-03-01T10:46:30;8.00;99.90
12289;DHT22;6207;49.308;7.336;2023-03-01T10:49:14;8.90;99.90
12289;DHT22;6207;49.308;7.336;2023-03-01T10:51:43;8.80;99.90
12289;DHT22;6207;49.308;7.336;2023-03-01T10:54:26;8.90;99.90
12289;DHT22;6207;49.308;7.336;2023-03-01T10:56:56;9.40;99.90
12289;DHT22;6207;49.308;7.336;2023-03-01T10:59:32;8.60;99.90
12289;DHT22;6207;49.308;7.336;2023-03-01T11:02:23;6.00;99.90
12289;DHT22;6207;49.308;7.336;2023-03-01T11:05:39;7.00;99.90
12289;DHT22;6207;49.308;7.336;2023-03-01T11:07:52;7.60;99.90
12289;DHT22;6207;49.308;7.336;2023-03-01T11:10:28;8.00;99.90
12289;DHT22;6207;49.308;7.336;2023-03-01T11:13:17;6.10;99.90
12289;DHT22;6207;49.308;7.336;2023-03-01T11:16:10;5.40;99.90
12289;DHT22;6207;49.308;7.336;2023-03-01T11:18:38;4.70;99.90
12289;DHT22;6207;49.308;7.336;2023-03-01T11:21:13;4.80;99.90
12289;DHT22;6207;49.308;7.336;2023-03-01T11:23:42;4.90;99.90
12289;DHT22;6207;49.308;7.336;2023-03-01T11:26:09;4.80;99.90
12289;DHT22;6207;49.308;7.336;2023-03-01T11:28:40;4.80;99.90
12289;DHT22;6207;49.308;7.336;2023-03-01T11:31:10;5.00;99.90
12289;DHT22;6207;49.308;7.336;2023-03-01T11:33:49;5.00;99.90
12289;DHT22;6207;49.308;7.336;2023-03-01T11:36:31;5.30;99.90
12289;DHT22;6207;49.308;7.336;2023-03-01T11:39:13;5.30;99.90
12289;DHT22;6207;49.308;7.336;2023-03-01T11:41:49;5.60;99.90
12289;DHT22;6207;49.308;7.336;2023-03-01T11:44:25;5.40;99.90
12289;DHT22;6207;49.308;7.336;2023-03-01T11:47:17;5.10;99.90
12289;DHT22;6207;49.308;7.336;2023-03-01T11:52:35;5.50;99.90
12289;DHT22;6207;49.308;7.336;2023-03-01T11:55:19;5.50;99.90
12289;DHT22;6207;49.308;7.336;2023-03-01T12:01:15;5.30;99.90
12289;DHT22;6207;49.308;7.336;2023-03-01T12:04:18;5.60;99.90
12289;DHT22;6207;49.308;7.336;2023-03-01T12:06:57;5.40;99.90
12289;DHT22;6207;49.308;7.336;2023-03-01T12:15:09;5.60;99.90
12289;DHT22;6207;49.308;7.336;2023-03-01T12:17:52;5.60;99.90
12289;DHT22;6207;49.308;7.336;2023-03-01T12:26:03;5.60;99.90
12289;DHT22;6207;49.308;7.336;2023-03-01T12:29:02;5.60;99.90
12289;DHT22;6207;49.308;7.336;2023-03-01T12:34:45;5.50;99.90
12289;DHT22;6207;49.308;7.336;2023-03-01T12:37:29;5.40;99.90
12289;DHT22;6207;49.308;7.336;2023-03-01T12:43:06;5.00;99.90
12289;DHT22;6207;49.308;7.336;2023-03-01T12:50:59;5.30;99.90
12289;DHT22;6207;49.308;7.336;2023-03-01T12:53:47;5.40;99.90
12289;DHT22;6207;49.308;7.336;2023-03-01T12:56:35;5.30;99.90
12289;DHT22;6207;49.308;7.336;2023-03-01T12:59:15;5.40;99.90
12289;DHT22;6207;49.308;7.336;2023-03-01T13:08:18;5.40;99.90
12289;DHT22;6207;49.308;7.336;2023-03-01T13:10:51;5.50;99.90
12289;DHT22;6207;49.308;7.336;2023-03-01T13:13:25;5.50;99.90
12289;DHT22;6207;49.308;7.336;2023-03-01T13:15:53;5.60;99.90
12289;DHT22;6207;49.308;7.336;2023-03-01T13:20:50;5.70;99.90
12289;DHT22;6207;49.308;7.336;2023-03-01T13:28:38;5.90;99.90
12289;DHT22;6207;49.308;7.336;2023-03-01T13:31:10;5.70;99.90
12289;DHT22;6207;49.308;7.336;2023-03-01T13:39:00;6.20;99.90
12289;DHT22;6207;49.308;7.336;2023-03-01T13:44:35;5.80;99.90
12289;DHT22;6207;49.308;7.336;2023-03-01T13:49:56;5.90;99.90
12289;DHT22;6207;49.308;7.336;2023-03-01T13:55:14;6.00;99.90
12289;DHT22;6207;49.308;7.336;2023-03-01T13:58:02;5.80;99.90
12289;DHT22;6207;49.308;7.336;2023-03-01T14:00:38;5.90;99.90
12289;DHT22;6207;49.308;7.336;2023-03-01T14:05:42;6.30;99.90
12289;DHT22;6207;49.308;7.336;2023-03-01T14:08:21;6.20;99.90
12289;DHT22;6207;49.308;7.336;2023-03-01T14:19:16;6.20;99.90
12289;DHT22;6207;49.308;7.336;2023-03-01T14:24:55;6.50;99.90
12289;DHT22;6207;49.308;7.336;2023-03-01T14:27:38;6.50;99.90
12289;DHT22;6207;49.308;7.336;2023-03-01T14:30:17;6.30;99.90
12289;DHT22;6207;49.308;7.336;2023-03-01T14:32:54;6.10;99.90
12289;DHT22;6207;49.308;7.336;2023-03-01T14:35:29;6.30;99.90
12289;DHT22;6207;49.308;7.336;2023-03-01T14:37:57;6.20;99.90
12289;DHT22;6207;49.308;7.336;2023-03-01T14:40:32;6.30;99.90
12289;DHT22;6207;49.308;7.336;2023-03-01T14:43:02;6.30;99.90
12289;DHT22;6207;49.308;7.336;2023-03-01T14:45:34;6.30;99.90
12289;DHT22;6207;49.308;7.336;2023-03-01T14:48:04;6.20;99.90
12289;DHT22;6207;49.308;7.336;2023-03-01T14:50:34;6.20;99.90
12289;DHT22;6207;49.308;7.336;2023-03-01T14:53:04;6.40;99.90
12289;DHT22;6207;49.308;7.336;2023-03-01T14:55:41;6.30;99.90
12289;DHT22;6207;49.308;7.336;2023-03-01T14:58:16;6.40;99.90
12289;DHT22;6207;49.308;7.336;2023-03-01T15:00:56;6.30;99.90
12289;DHT22;6207;49.308;7.336;2023-03-01T15:05:52;6.30;99.90
12289;DHT22;6207;49.308;7.336;2023-03-01T15:08:25;6.40;99.90
12289;DHT22;6207;49.308;7.336;2023-03-01T15:13:40;6.30;99.90
12289;DHT22;6207;49.308;7.336;2023-03-01T15:16:08;6.20;99.90
12289;DHT22;6207;49.308;7.336;2023-03-01T15:18:36;6.10;99.90
12289;DHT22;6207;49.308;7.336;2023-03-01T15:21:16;6.20;99.90
12289;DHT22;6207;49.308;7.336;2023-03-01T15:23:52;6.20;99.90
12289;DHT22;6207;49.308;7.336;2023-03-01T15:26:26;6.30;99.90
12289;DHT22;6207;49.308;7.336;2023-03-01T15:28:56;6.40;99.90
12289;DHT22;6207;49.308;7.336;2023-03-01T15:31:36;6.40;99.90
12289;DHT22;6207;49.308;7.336;2023-03-01T15:36:52;6.30;99.90
12289;DHT22;6207;49.308;7.336;2023-03-01T15:39:38;6.40;99.90
12289;DHT22;6207;49.308;7.336;2023-03-01T15:42:09;6.40;99.90
12289;DHT22;6207;49.308;7.336;2023-03-01T15:44:40;6.40;99.90
12289;DHT22;6207;49.308;7.336;2023-03-01T15:47:27;6.40;99.90
12289;DHT22;6207;49.308;7.336;2023-03-01T15:49:55;6.50;99.90
12289;DHT22;6207;49.308;7.336;2023-03-01T15:52:33;6.40;99.90
12289;DHT22;6207;49.308;7.336;2023-03-01T15:55:15;6.40;99.90
12289;DHT22;6207;49.308;7.336;2023-03-01T15:57:42;6.40;99.90
12289;DHT22;6207;49.308;7.336;2023-03-01T16:00:10;6.40;99.90
12289;DHT22;6207;49.308;7.336;2023-03-01T16:02:38;6.40;99.90
12289;DHT22;6207;49.308;7.336;2023-03-01T16:05:05;6.40;99.90
12289;DHT22;6207;49.308;7.336;2023-03-01T16:07:32;6.40;99.90
12289;DHT22;6207;49.308;7.336;2023-03-01T16:09:58;6.40;99.90
12289;DHT22;6207;49.308;7.336;2023-03-01T16:12:25;6.40;99.90
12289;DHT22;6207;49.308;7.336;2023-03-01T16:14:51;6.40;99.90
12289;DHT22;6207;49.308;7.336;2023-03-01T16:17:19;6.40;99.90
12289;DHT22;6207;49.308;7.336;2023-03-01T16:19:46;6.30;99.90
12289;DHT22;6207;49.308;7.336;2023-03-01T16:22:12;6.30;99.90
12289;DHT22;6207;49.308;7.336;2023-03-01T16:24:39;6.30;99.90
12289;DHT22;6207;49.308;7.336;2023-03-01T16:27:07;6.30;99.90
12289;DHT22;6207;49.308;7.336;2023-03-01T16:29:33;6.30;99.90
12289;DHT22;6207;49.308;7.336;2023-03-01T16:32:01;6.30;99.90
12289;DHT22;6207;49.308;7.336;2023-03-01T16:34:28;6.20;99.90
12289;DHT22;6207;49.308;7.336;2023-03-01T16:36:55;6.20;99.90
12289;DHT22;6207;49.308;7.336;2023-03-01T16:39:22;6.20;99.90
12289;DHT22;6207;49.308;7.336;2023-03-01T16:41:49;6.10;99.90
12289;DHT22;6207;49.308;7.336;2023-03-01T16:44:15;6.00;99.90
12289;DHT22;6207;49.308;7.336;2023-03-01T16:46:42;6.10;99.90
12289;DHT22;6207;49.308;7.336;2023-03-01T16:49:09;5.90;99.90
12289;DHT22;6207;49.308;7.336;2023-03-01T16:51:36;5.90;99.90
12289;DHT22;6207;49.308;7.336;2023-03-01T16:54:03;5.80;99.90
12289;DHT22;6207;49.308;7.336;2023-03-01T16:56:31;5.80;99.90
12289;DHT22;6207;49.308;7.336;2023-03-01T16:59:00;5.70;99.90
12289;DHT22;6207;49.308;7.336;2023-03-01T17:01:31;5.70;99.90
12289;DHT22;6207;49.308;7.336;2023-03-01T17:04:04;5.60;99.90
12289;DHT22;6207;49.308;7.336;2023-03-01T17:06:30;5.50;99.90
12289;DHT22;6207;49.308;7.336;2023-03-01T17:08:59;5.50;99.90
12289;DHT22;6207;49.308;7.336;2023-03-01T17:11:26;5.50;99.90
12289;DHT22;6207;49.308;7.336;2023-03-01T17:13:52;5.40;99.90
12289;DHT22;6207;49.308;7.336;2023-03-01T17:16:20;5.30;99.90
12289;DHT22;6207;49.308;7.336;2023-03-01T17:18:47;5.30;99.90
12289;DHT22;6207;49.308;7.336;2023-03-01T17:21:16;5.20;99.90
12289;DHT22;6207;49.308;7.336;2023-03-01T17:23:44;5.20;99.90
12289;DHT22;6207;49.308;7.336;2023-03-01T17:26:12;5.10;99.90
12289;DHT22;6207;49.308;7.336;2023-03-01T17:28:39;5.00;99.90
12289;DHT22;6207;49.308;7.336;2023-03-01T17:31:06;5.10;99.90
12289;DHT22;6207;49.308;7.336;2023-03-01T17:33:33;5.00;99.90
12289;DHT22;6207;49.308;7.336;2023-03-01T17:36:00;5.10;99.90
12289;DHT22;6207;49.308;7.336;2023-03-01T17:38:27;4.90;99.90
12289;DHT22;6207;49.308;7.336;2023-03-01T17:40:54;4.90;99.90
12289;DHT22;6207;49.308;7.336;2023-03-01T17:43:21;4.80;99.90
12289;DHT22;6207;49.308;7.336;2023-03-01T17:45:47;4.80;99.90
12289;DHT22;6207;49.308;7.336;2023-03-01T17:48:17;4.70;99.90